Portada
METAR-TAF:

METAR-TAF

Aeroports :

Morrisville-Stowe State Airport

Morrisville, Vermont, Estats Units d'Amèrica

latitud: 44-32-10N, longitud: 072-36-58W, altitud: 223 m

Observació

L'informe es va fer fa 44 minuts, a les 12:54 UTC
Vent 3 kt amb direcció variable
Temperatura -7°C
Humitat 62%
Pressió 1028 hPa
Visibilitat: 16.1 km
Cel cobert a una alçada de 3800 ft
neu

METAR: KMVL 181254Z AUTO VRB03KT 10SM -SN OVC038 M07/M13 A3035 RMK AO2 SNB54 SLP295 P0000 T10721133

Hora: 08:38 (13:38 UTC)


TAF: manca

Observacions i pronòstics meteorològics de més de 4000 aeroports (METAR i TAF).

Les estacions disponibles són els punts grocs i vermells al mapa.

Posi el ratolí al punt desitjat per veure el nom de l'estació.

Feu clic per veure les observacions i els pronòstics meteorològics.

Per canviar el mapa: feu clic els botons verds amb una creu de color negre per apropar; al botó verd amb un guió per allunyar la imatge; o en les fletxes verdes per a mapes adjacents.


METAR-TAF: